sensor_id;sensor_type;location;lat;lon;timestamp;P1;durP1;ratioP1;P2;durP2;ratioP2
71734;SDS011;59577;52.122;5.406;2023-02-18T00:02:11;29.83;;;11.47;;
71734;SDS011;59577;52.122;5.406;2023-02-18T00:04:38;35.00;;;13.13;;
71734;SDS011;59577;52.122;5.406;2023-02-18T00:07:04;35.42;;;12.77;;
71734;SDS011;59577;52.122;5.406;2023-02-18T00:09:34;39.10;;;14.07;;
71734;SDS011;59577;52.122;5.406;2023-02-18T00:12:01;39.22;;;11.52;;
71734;SDS011;59577;52.122;5.406;2023-02-18T00:14:27;37.53;;;13.57;;
71734;SDS011;59577;52.122;5.406;2023-02-18T00:16:54;42.58;;;13.27;;
71734;SDS011;59577;52.122;5.406;2023-02-18T00:19:20;36.20;;;12.35;;
71734;SDS011;59577;52.122;5.406;2023-02-18T00:21:47;31.55;;;11.93;;
71734;SDS011;59577;52.122;5.406;2023-02-18T00:24:13;36.40;;;13.57;;
71734;SDS011;59577;52.122;5.406;2023-02-18T00:26:41;33.40;;;13.27;;
71734;SDS011;59577;52.122;5.406;2023-02-18T00:29:08;39.70;;;12.52;;
71734;SDS011;59577;52.122;5.406;2023-02-18T00:31:35;38.60;;;13.15;;
71734;SDS011;59577;52.122;5.406;2023-02-18T00:34:04;38.33;;;13.20;;
71734;SDS011;59577;52.122;5.406;2023-02-18T00:36:31;43.22;;;15.68;;
71734;SDS011;59577;52.122;5.406;2023-02-18T00:38:59;43.37;;;13.90;;
71734;SDS011;59577;52.122;5.406;2023-02-18T00:41:38;46.08;;;14.15;;
71734;SDS011;59577;52.122;5.406;2023-02-18T00:44:06;36.22;;;13.52;;
71734;SDS011;59577;52.122;5.406;2023-02-18T00:46:34;39.45;;;14.23;;
71734;SDS011;59577;52.122;5.406;2023-02-18T00:49:02;34.10;;;12.93;;
71734;SDS011;59577;52.122;5.406;2023-02-18T00:51:29;41.67;;;14.37;;
71734;SDS011;59577;52.122;5.406;2023-02-18T00:53:56;45.30;;;13.88;;
71734;SDS011;59577;52.122;5.406;2023-02-18T00:56:22;42.38;;;14.05;;
71734;SDS011;59577;52.122;5.406;2023-02-18T00:58:49;40.33;;;13.43;;
71734;SDS011;59577;52.122;5.406;2023-02-18T01:01:17;34.42;;;11.80;;
71734;SDS011;59577;52.122;5.406;2023-02-18T01:03:44;44.57;;;12.87;;
71734;SDS011;59577;52.122;5.406;2023-02-18T01:06:11;36.78;;;12.88;;
71734;SDS011;59577;52.122;5.406;2023-02-18T01:08:38;38.55;;;12.13;;
71734;SDS011;59577;52.122;5.406;2023-02-18T01:11:06;31.90;;;12.07;;
71734;SDS011;59577;52.122;5.406;2023-02-18T01:13:34;34.13;;;11.57;;
71734;SDS011;59577;52.122;5.406;2023-02-18T01:16:01;33.20;;;10.87;;
71734;SDS011;59577;52.122;5.406;2023-02-18T01:18:28;26.33;;;10.73;;
71734;SDS011;59577;52.122;5.406;2023-02-18T01:20:56;28.83;;;10.35;;
71734;SDS011;59577;52.122;5.406;2023-02-18T01:23:22;27.23;;;10.88;;
71734;SDS011;59577;52.122;5.406;2023-02-18T01:25:49;29.65;;;10.38;;
71734;SDS011;59577;52.122;5.406;2023-02-18T01:28:16;32.67;;;9.67;;
71734;SDS011;59577;52.122;5.406;2023-02-18T01:31:20;26.75;;;10.10;;
71734;SDS011;59577;52.122;5.406;2023-02-18T01:33:50;31.90;;;10.50;;
71734;SDS011;59577;52.122;5.406;2023-02-18T01:36:16;22.98;;;9.25;;
71734;SDS011;59577;52.122;5.406;2023-02-18T01:38:43;22.58;;;9.43;;
71734;SDS011;59577;52.122;5.406;2023-02-18T01:41:10;25.20;;;9.57;;
71734;SDS011;59577;52.122;5.406;2023-02-18T01:43:37;22.70;;;9.90;;
71734;SDS011;59577;52.122;5.406;2023-02-18T01:46:17;23.85;;;8.65;;
71734;SDS011;59577;52.122;5.406;2023-02-18T01:51:27;25.83;;;10.18;;
71734;SDS011;59577;52.122;5.406;2023-02-18T01:54:05;27.07;;;9.60;;
71734;SDS011;59577;52.122;5.406;2023-02-18T01:56:37;24.83;;;9.57;;
71734;SDS011;59577;52.122;5.406;2023-02-18T01:59:14;24.10;;;9.77;;
71734;SDS011;59577;52.122;5.406;2023-02-18T02:01:43;27.95;;;9.80;;
71734;SDS011;59577;52.122;5.406;2023-02-18T02:04:12;24.75;;;9.15;;
71734;SDS011;59577;52.122;5.406;2023-02-18T02:06:39;23.47;;;8.73;;
71734;SDS011;59577;52.122;5.406;2023-02-18T02:09:06;29.67;;;9.75;;
71734;SDS011;59577;52.122;5.406;2023-02-18T02:20:36;31.50;;;11.87;;
71734;SDS011;59577;52.122;5.406;2023-02-18T02:26:04;31.33;;;11.30;;
71734;SDS011;59577;52.122;5.406;2023-02-18T02:31:46;29.23;;;10.20;;
71734;SDS011;59577;52.122;5.406;2023-02-18T02:36:54;37.75;;;12.45;;
71734;SDS011;59577;52.122;5.406;2023-02-18T02:45:41;34.08;;;12.70;;
71734;SDS011;59577;52.122;5.406;2023-02-18T02:48:23;34.90;;;12.50;;
71734;SDS011;59577;52.122;5.406;2023-02-18T02:53:36;27.60;;;10.45;;
71734;SDS011;59577;52.122;5.406;2023-02-18T02:56:08;35.15;;;11.90;;
71734;SDS011;59577;52.122;5.406;2023-02-18T02:58:38;30.13;;;9.52;;
71734;SDS011;59577;52.122;5.406;2023-02-18T03:01:13;28.40;;;10.53;;
71734;SDS011;59577;52.122;5.406;2023-02-18T03:06:36;26.25;;;10.75;;
71734;SDS011;59577;52.122;5.406;2023-02-18T03:09:17;26.23;;;10.38;;
71734;SDS011;59577;52.122;5.406;2023-02-18T03:12:09;36.42;;;10.85;;
71734;SDS011;59577;52.122;5.406;2023-02-18T03:15:04;24.60;;;11.07;;
71734;SDS011;59577;52.122;5.406;2023-02-18T03:17:56;32.28;;;10.88;;
71734;SDS011;59577;52.122;5.406;2023-02-18T03:20:28;24.98;;;10.13;;
71734;SDS011;59577;52.122;5.406;2023-02-18T03:22:59;22.80;;;8.20;;
71734;SDS011;59577;52.122;5.406;2023-02-18T03:25:29;28.05;;;10.60;;
71734;SDS011;59577;52.122;5.406;2023-02-18T03:27:59;25.10;;;8.77;;
71734;SDS011;59577;52.122;5.406;2023-02-18T03:30:32;31.55;;;9.98;;
71734;SDS011;59577;52.122;5.406;2023-02-18T03:33:04;31.80;;;10.55;;
71734;SDS011;59577;52.122;5.406;2023-02-18T03:35:35;23.85;;;9.50;;
71734;SDS011;59577;52.122;5.406;2023-02-18T03:38:10;24.85;;;8.80;;
71734;SDS011;59577;52.122;5.406;2023-02-18T03:40:41;22.70;;;9.37;;
71734;SDS011;59577;52.122;5.406;2023-02-18T03:43:08;23.33;;;9.02;;
71734;SDS011;59577;52.122;5.406;2023-02-18T03:45:35;18.30;;;7.28;;
71734;SDS011;59577;52.122;5.406;2023-02-18T03:48:02;18.23;;;8.35;;
71734;SDS011;59577;52.122;5.406;2023-02-18T03:50:38;16.98;;;6.70;;
71734;SDS011;59577;52.122;5.406;2023-02-18T03:53:05;18.00;;;6.97;;
71734;SDS011;59577;52.122;5.406;2023-02-18T03:55:31;12.30;;;5.32;;
71734;SDS011;59577;52.122;5.406;2023-02-18T03:57:58;15.25;;;5.72;;
71734;SDS011;59577;52.122;5.406;2023-02-18T04:00:24;11.75;;;4.18;;
71734;SDS011;59577;52.122;5.406;2023-02-18T04:02:51;8.82;;;4.07;;
71734;SDS011;59577;52.122;5.406;2023-02-18T04:05:18;11.50;;;4.37;;
71734;SDS011;59577;52.122;5.406;2023-02-18T04:07:44;7.53;;;3.30;;
71734;SDS011;59577;52.122;5.406;2023-02-18T04:10:11;9.25;;;3.22;;
71734;SDS011;59577;52.122;5.406;2023-02-18T04:12:37;6.47;;;3.17;;
71734;SDS011;59577;52.122;5.406;2023-02-18T04:15:04;9.27;;;3.20;;
71734;SDS011;59577;52.122;5.406;2023-02-18T04:17:31;6.00;;;2.57;;
71734;SDS011;59577;52.122;5.406;2023-02-18T04:19:58;5.85;;;2.72;;
71734;SDS011;59577;52.122;5.406;2023-02-18T04:22:25;5.18;;;2.38;;
71734;SDS011;59577;52.122;5.406;2023-02-18T04:24:51;4.78;;;1.95;;
71734;SDS011;59577;52.122;5.406;2023-02-18T04:27:18;4.53;;;1.83;;
71734;SDS011;59577;52.122;5.406;2023-02-18T04:29:44;3.83;;;2.00;;
71734;SDS011;59577;52.122;5.406;2023-02-18T04:32:11;6.43;;;2.38;;
71734;SDS011;59577;52.122;5.406;2023-02-18T04:34:37;3.83;;;2.25;;
71734;SDS011;59577;52.122;5.406;2023-02-18T04:37:04;3.13;;;2.03;;
71734;SDS011;59577;52.122;5.406;2023-02-18T04:39:30;3.10;;;1.90;;
71734;SDS011;59577;52.122;5.406;2023-02-18T04:41:57;4.60;;;2.27;;
71734;SDS011;59577;52.122;5.406;2023-02-18T04:44:23;7.25;;;2.42;;
71734;SDS011;59577;52.122;5.406;2023-02-18T04:46:50;3.85;;;2.30;;
71734;SDS011;59577;52.122;5.406;2023-02-18T04:49:17;5.40;;;2.17;;
71734;SDS011;59577;52.122;5.406;2023-02-18T04:51:43;5.53;;;3.03;;
71734;SDS011;59577;52.122;5.406;2023-02-18T04:54:10;4.20;;;2.63;;
71734;SDS011;59577;52.122;5.406;2023-02-18T04:56:36;3.92;;;2.45;;
71734;SDS011;59577;52.122;5.406;2023-02-18T04:59:03;4.25;;;2.10;;
71734;SDS011;59577;52.122;5.406;2023-02-18T05:01:29;3.58;;;2.22;;
71734;SDS011;59577;52.122;5.406;2023-02-18T05:03:56;3.53;;;2.50;;
71734;SDS011;59577;52.122;5.406;2023-02-18T05:06:22;3.60;;;2.30;;
71734;SDS011;59577;52.122;5.406;2023-02-18T05:08:49;7.20;;;3.17;;
71734;SDS011;59577;52.122;5.406;2023-02-18T05:11:15;6.20;;;3.67;;
71734;SDS011;59577;52.122;5.406;2023-02-18T05:13:42;5.82;;;3.75;;
71734;SDS011;59577;52.122;5.406;2023-02-18T05:16:08;4.82;;;2.92;;
71734;SDS011;59577;52.122;5.406;2023-02-18T05:18:35;6.13;;;3.13;;
71734;SDS011;59577;52.122;5.406;2023-02-18T05:21:02;4.67;;;2.63;;
71734;SDS011;59577;52.122;5.406;2023-02-18T05:23:29;4.07;;;2.80;;
71734;SDS011;59577;52.122;5.406;2023-02-18T05:25:55;4.47;;;3.28;;
71734;SDS011;59577;52.122;5.406;2023-02-18T05:28:22;4.72;;;3.13;;
71734;SDS011;59577;52.122;5.406;2023-02-18T05:30:48;4.63;;;2.97;;
71734;SDS011;59577;52.122;5.406;2023-02-18T05:33:15;4.03;;;2.65;;
71734;SDS011;59577;52.122;5.406;2023-02-18T05:35:41;4.45;;;2.83;;
71734;SDS011;59577;52.122;5.406;2023-02-18T05:38:08;4.80;;;2.75;;
71734;SDS011;59577;52.122;5.406;2023-02-18T05:40:35;4.15;;;3.03;;
71734;SDS011;59577;52.122;5.406;2023-02-18T05:43:01;3.10;;;2.27;;
71734;SDS011;59577;52.122;5.406;2023-02-18T05:45:28;5.93;;;3.80;;
71734;SDS011;59577;52.122;5.406;2023-02-18T05:47:54;4.38;;;3.00;;
71734;SDS011;59577;52.122;5.406;2023-02-18T05:50:21;8.63;;;4.75;;
71734;SDS011;59577;52.122;5.406;2023-02-18T05:52:48;7.75;;;4.15;;
71734;SDS011;59577;52.122;5.406;2023-02-18T05:55:14;11.40;;;5.77;;
71734;SDS011;59577;52.122;5.406;2023-02-18T05:57:41;13.18;;;6.30;;
71734;SDS011;59577;52.122;5.406;2023-02-18T06:00:08;11.77;;;6.25;;
71734;SDS011;59577;52.122;5.406;2023-02-18T06:02:35;14.20;;;7.63;;
71734;SDS011;59577;52.122;5.406;2023-02-18T06:05:03;13.88;;;6.75;;
71734;SDS011;59577;52.122;5.406;2023-02-18T06:07:29;11.07;;;6.60;;
71734;SDS011;59577;52.122;5.406;2023-02-18T06:09:56;11.30;;;6.40;;
71734;SDS011;59577;52.122;5.406;2023-02-18T06:12:32;9.65;;;5.38;;
71734;SDS011;59577;52.122;5.406;2023-02-18T06:14:59;11.25;;;5.75;;
71734;SDS011;59577;52.122;5.406;2023-02-18T06:17:25;11.07;;;5.72;;
71734;SDS011;59577;52.122;5.406;2023-02-18T06:19:52;8.07;;;5.93;;
71734;SDS011;59577;52.122;5.406;2023-02-18T06:22:18;9.52;;;6.05;;
71734;SDS011;59577;52.122;5.406;2023-02-18T06:24:45;14.23;;;7.25;;
71734;SDS011;59577;52.122;5.406;2023-02-18T06:27:11;10.30;;;6.88;;
71734;SDS011;59577;52.122;5.406;2023-02-18T06:29:38;12.63;;;6.78;;
71734;SDS011;59577;52.122;5.406;2023-02-18T06:32:04;17.73;;;7.37;;
71734;SDS011;59577;52.122;5.406;2023-02-18T06:34:31;14.43;;;7.35;;
71734;SDS011;59577;52.122;5.406;2023-02-18T06:36:58;12.55;;;6.22;;
71734;SDS011;59577;52.122;5.406;2023-02-18T06:39:26;14.32;;;6.82;;
71734;SDS011;59577;52.122;5.406;2023-02-18T06:41:53;14.32;;;7.78;;
71734;SDS011;59577;52.122;5.406;2023-02-18T06:44:19;11.47;;;5.90;;
71734;SDS011;59577;52.122;5.406;2023-02-18T06:46:46;8.85;;;5.85;;
71734;SDS011;59577;52.122;5.406;2023-02-18T06:49:12;10.32;;;6.35;;
71734;SDS011;59577;52.122;5.406;2023-02-18T06:51:39;14.95;;;6.90;;
71734;SDS011;59577;52.122;5.406;2023-02-18T06:54:05;11.85;;;5.68;;
71734;SDS011;59577;52.122;5.406;2023-02-18T06:56:32;9.73;;;5.70;;
71734;SDS011;59577;52.122;5.406;2023-02-18T06:58:59;7.57;;;4.78;;
71734;SDS011;59577;52.122;5.406;2023-02-18T07:01:25;12.23;;;5.53;;
71734;SDS011;59577;52.122;5.406;2023-02-18T07:03:51;8.10;;;5.07;;
71734;SDS011;59577;52.122;5.406;2023-02-18T07:06:18;12.93;;;6.28;;
71734;SDS011;59577;52.122;5.406;2023-02-18T07:08:44;13.40;;;4.93;;
71734;SDS011;59577;52.122;5.406;2023-02-18T07:11:11;14.80;;;6.38;;
71734;SDS011;59577;52.122;5.406;2023-02-18T07:13:38;15.70;;;6.65;;
71734;SDS011;59577;52.122;5.406;2023-02-18T07:16:04;20.17;;;6.72;;
71734;SDS011;59577;52.122;5.406;2023-02-18T07:18:32;14.05;;;6.28;;
71734;SDS011;59577;52.122;5.406;2023-02-18T07:20:58;12.53;;;6.83;;
71734;SDS011;59577;52.122;5.406;2023-02-18T07:23:25;18.73;;;7.22;;
71734;SDS011;59577;52.122;5.406;2023-02-18T07:25:51;9.48;;;5.68;;
71734;SDS011;59577;52.122;5.406;2023-02-18T07:28:18;17.63;;;7.28;;
71734;SDS011;59577;52.122;5.406;2023-02-18T07:30:45;18.65;;;8.45;;
71734;SDS011;59577;52.122;5.406;2023-02-18T07:33:11;11.77;;;7.53;;
71734;SDS011;59577;52.122;5.406;2023-02-18T07:35:39;18.25;;;7.22;;
71734;SDS011;59577;52.122;5.406;2023-02-18T07:38:05;14.25;;;6.88;;
71734;SDS011;59577;52.122;5.406;2023-02-18T07:40:32;14.68;;;6.88;;
71734;SDS011;59577;52.122;5.406;2023-02-18T07:42:59;12.80;;;7.03;;
71734;SDS011;59577;52.122;5.406;2023-02-18T07:45:25;16.37;;;7.77;;
71734;SDS011;59577;52.122;5.406;2023-02-18T07:47:52;19.80;;;7.95;;
71734;SDS011;59577;52.122;5.406;2023-02-18T07:50:18;14.45;;;7.40;;
71734;SDS011;59577;52.122;5.406;2023-02-18T07:52:45;16.38;;;6.30;;
71734;SDS011;59577;52.122;5.406;2023-02-18T07:55:11;11.10;;;5.13;;
71734;SDS011;59577;52.122;5.406;2023-02-18T07:57:38;12.83;;;5.30;;
71734;SDS011;59577;52.122;5.406;2023-02-18T08:00:22;17.60;;;4.72;;
71734;SDS011;59577;52.122;5.406;2023-02-18T08:02:49;19.45;;;4.40;;
71734;SDS011;59577;52.122;5.406;2023-02-18T08:05:16;11.68;;;3.83;;
71734;SDS011;59577;52.122;5.406;2023-02-18T08:07:42;10.35;;;3.60;;
71734;SDS011;59577;52.122;5.406;2023-02-18T08:10:09;12.40;;;3.00;;
71734;SDS011;59577;52.122;5.406;2023-02-18T08:12:35;11.52;;;3.33;;
71734;SDS011;59577;52.122;5.406;2023-02-18T08:15:02;17.88;;;3.05;;
71734;SDS011;59577;52.122;5.406;2023-02-18T08:17:29;12.63;;;2.85;;
71734;SDS011;59577;52.122;5.406;2023-02-18T08:19:55;14.20;;;2.42;;
71734;SDS011;59577;52.122;5.406;2023-02-18T08:22:21;13.93;;;2.63;;
71734;SDS011;59577;52.122;5.406;2023-02-18T08:24:48;9.90;;;2.53;;
71734;SDS011;59577;52.122;5.406;2023-02-18T08:27:14;18.25;;;2.42;;
71734;SDS011;59577;52.122;5.406;2023-02-18T08:29:41;11.35;;;1.67;;
71734;SDS011;59577;52.122;5.406;2023-02-18T08:32:07;9.52;;;1.88;;
71734;SDS011;59577;52.122;5.406;2023-02-18T08:34:34;13.63;;;2.63;;
71734;SDS011;59577;52.122;5.406;2023-02-18T08:37:01;14.82;;;2.08;;
71734;SDS011;59577;52.122;5.406;2023-02-18T08:39:27;15.32;;;1.73;;
71734;SDS011;59577;52.122;5.406;2023-02-18T08:41:55;13.63;;;1.80;;
71734;SDS011;59577;52.122;5.406;2023-02-18T08:44:22;15.23;;;2.05;;
71734;SDS011;59577;52.122;5.406;2023-02-18T08:46:48;11.17;;;1.53;;
71734;SDS011;59577;52.122;5.406;2023-02-18T08:49:15;15.05;;;1.88;;
71734;SDS011;59577;52.122;5.406;2023-02-18T08:51:42;11.40;;;1.80;;
71734;SDS011;59577;52.122;5.406;2023-02-18T08:54:08;14.35;;;1.58;;
71734;SDS011;59577;52.122;5.406;2023-02-18T08:56:35;7.85;;;1.27;;
71734;SDS011;59577;52.122;5.406;2023-02-18T08:59:01;15.70;;;2.03;;
71734;SDS011;59577;52.122;5.406;2023-02-18T09:01:28;12.77;;;1.77;;
71734;SDS011;59577;52.122;5.406;2023-02-18T09:03:54;7.28;;;1.77;;
71734;SDS011;59577;52.122;5.406;2023-02-18T09:06:21;13.07;;;1.67;;
71734;SDS011;59577;52.122;5.406;2023-02-18T09:08:48;9.10;;;1.10;;
71734;SDS011;59577;52.122;5.406;2023-02-18T09:11:14;9.20;;;1.13;;
71734;SDS011;59577;52.122;5.406;2023-02-18T09:13:41;11.32;;;0.98;;
71734;SDS011;59577;52.122;5.406;2023-02-18T09:16:10;9.27;;;1.23;;
71734;SDS011;59577;52.122;5.406;2023-02-18T09:18:40;11.65;;;1.42;;
71734;SDS011;59577;52.122;5.406;2023-02-18T09:21:07;11.27;;;1.20;;
71734;SDS011;59577;52.122;5.406;2023-02-18T09:23:35;11.47;;;1.73;;
71734;SDS011;59577;52.122;5.406;2023-02-18T09:26:06;12.05;;;1.20;;
71734;SDS011;59577;52.122;5.406;2023-02-18T09:28:34;10.43;;;1.23;;
71734;SDS011;59577;52.122;5.406;2023-02-18T09:33:34;6.70;;;0.82;;
71734;SDS011;59577;52.122;5.406;2023-02-18T09:36:02;13.20;;;1.20;;
71734;SDS011;59577;52.122;5.406;2023-02-18T09:38:30;9.32;;;1.13;;
71734;SDS011;59577;52.122;5.406;2023-02-18T09:40:56;9.43;;;1.13;;
71734;SDS011;59577;52.122;5.406;2023-02-18T09:45:54;6.70;;;1.38;;
71734;SDS011;59577;52.122;5.406;2023-02-18T09:48:24;7.90;;;1.20;;
71734;SDS011;59577;52.122;5.406;2023-02-18T09:50:53;6.65;;;0.93;;
71734;SDS011;59577;52.122;5.406;2023-02-18T09:53:21;11.00;;;1.55;;
71734;SDS011;59577;52.122;5.406;2023-02-18T09:55:49;8.75;;;1.10;;
71734;SDS011;59577;52.122;5.406;2023-02-18T09:58:22;4.80;;;0.80;;
71734;SDS011;59577;52.122;5.406;2023-02-18T10:00:53;8.43;;;1.07;;
71734;SDS011;59577;52.122;5.406;2023-02-18T10:03:28;11.90;;;1.00;;
71734;SDS011;59577;52.122;5.406;2023-02-18T10:05:56;10.73;;;1.33;;
71734;SDS011;59577;52.122;5.406;2023-02-18T10:08:35;16.27;;;1.52;;
71734;SDS011;59577;52.122;5.406;2023-02-18T10:11:15;9.38;;;1.50;;
71734;SDS011;59577;52.122;5.406;2023-02-18T10:13:46;11.30;;;1.43;;
71734;SDS011;59577;52.122;5.406;2023-02-18T10:16:15;15.23;;;1.63;;
71734;SDS011;59577;52.122;5.406;2023-02-18T10:18:45;11.93;;;1.83;;
71734;SDS011;59577;52.122;5.406;2023-02-18T10:21:18;11.90;;;1.40;;
71734;SDS011;59577;52.122;5.406;2023-02-18T10:26:25;7.07;;;1.00;;
71734;SDS011;59577;52.122;5.406;2023-02-18T10:28:54;10.73;;;1.52;;
71734;SDS011;59577;52.122;5.406;2023-02-18T10:31:32;8.75;;;0.88;;
71734;SDS011;59577;52.122;5.406;2023-02-18T10:41:40;13.15;;;1.30;;
71734;SDS011;59577;52.122;5.406;2023-02-18T10:49:54;13.30;;;1.85;;
71734;SDS011;59577;52.122;5.406;2023-02-18T10:52:24;13.63;;;1.07;;
71734;SDS011;59577;52.122;5.406;2023-02-18T10:54:59;9.85;;;1.48;;
71734;SDS011;59577;52.122;5.406;2023-02-18T10:57:30;22.30;;;1.30;;
71734;SDS011;59577;52.122;5.406;2023-02-18T11:02:41;13.60;;;1.90;;
71734;SDS011;59577;52.122;5.406;2023-02-18T11:05:18;12.17;;;1.57;;
71734;SDS011;59577;52.122;5.406;2023-02-18T11:07:50;9.82;;;1.60;;
71734;SDS011;59577;52.122;5.406;2023-02-18T11:10:30;13.10;;;1.25;;
71734;SDS011;59577;52.122;5.406;2023-02-18T11:13:02;7.53;;;1.10;;
71734;SDS011;59577;52.122;5.406;2023-02-18T11:15:32;7.70;;;1.33;;
71734;SDS011;59577;52.122;5.406;2023-02-18T11:20:55;10.68;;;1.13;;
71734;SDS011;59577;52.122;5.406;2023-02-18T11:23:47;10.43;;;0.90;;
71734;SDS011;59577;52.122;5.406;2023-02-18T11:26:16;12.55;;;1.50;;
71734;SDS011;59577;52.122;5.406;2023-02-18T11:28:50;9.88;;;1.10;;
71734;SDS011;59577;52.122;5.406;2023-02-18T11:31:24;13.70;;;1.40;;
71734;SDS011;59577;52.122;5.406;2023-02-18T11:33:56;10.35;;;1.90;;
71734;SDS011;59577;52.122;5.406;2023-02-18T11:38:59;7.43;;;1.55;;
71734;SDS011;59577;52.122;5.406;2023-02-18T11:42:10;9.45;;;1.23;;
71734;SDS011;59577;52.122;5.406;2023-02-18T11:44:42;8.07;;;0.97;;
71734;SDS011;59577;52.122;5.406;2023-02-18T11:49:42;8.50;;;0.93;;
71734;SDS011;59577;52.122;5.406;2023-02-18T11:54:57;7.55;;;0.95;;
71734;SDS011;59577;52.122;5.406;2023-02-18T11:57:57;7.23;;;0.60;;
71734;SDS011;59577;52.122;5.406;2023-02-18T12:00:34;14.02;;;1.05;;
71734;SDS011;59577;52.122;5.406;2023-02-18T12:06:27;7.55;;;0.95;;
71734;SDS011;59577;52.122;5.406;2023-02-18T12:09:02;9.88;;;1.33;;
71734;SDS011;59577;52.122;5.406;2023-02-18T12:11:33;6.57;;;0.57;;
71734;SDS011;59577;52.122;5.406;2023-02-18T12:14:08;8.90;;;1.25;;
71734;SDS011;59577;52.122;5.406;2023-02-18T12:25:32;9.77;;;1.00;;
71734;SDS011;59577;52.122;5.406;2023-02-18T12:28:13;8.73;;;0.88;;
71734;SDS011;59577;52.122;5.406;2023-02-18T12:31:04;9.07;;;1.10;;
71734;SDS011;59577;52.122;5.406;2023-02-18T12:42:40;7.50;;;0.80;;
71734;SDS011;59577;52.122;5.406;2023-02-18T12:45:40;8.20;;;0.80;;
71734;SDS011;59577;52.122;5.406;2023-02-18T12:50:55;5.25;;;1.13;;
71734;SDS011;59577;52.122;5.406;2023-02-18T12:53:39;10.13;;;0.90;;
71734;SDS011;59577;52.122;5.406;2023-02-18T12:56:21;8.52;;;0.95;;
71734;SDS011;59577;52.122;5.406;2023-02-18T13:05:11;6.18;;;0.50;;
71734;SDS011;59577;52.122;5.406;2023-02-18T13:13:23;5.20;;;0.60;;
71734;SDS011;59577;52.122;5.406;2023-02-18T13:15:54;4.88;;;0.70;;
71734;SDS011;59577;52.122;5.406;2023-02-18T13:18:29;6.38;;;0.73;;
71734;SDS011;59577;52.122;5.406;2023-02-18T13:21:00;9.53;;;1.50;;
71734;SDS011;59577;52.122;5.406;2023-02-18T13:23:33;9.25;;;0.85;;
71734;SDS011;59577;52.122;5.406;2023-02-18T13:26:04;5.93;;;0.90;;
71734;SDS011;59577;52.122;5.406;2023-02-18T13:34:26;9.40;;;0.73;;
71734;SDS011;59577;52.122;5.406;2023-02-18T13:37:09;9.20;;;1.10;;
71734;SDS011;59577;52.122;5.406;2023-02-18T13:39:46;8.52;;;0.73;;
71734;SDS011;59577;52.122;5.406;2023-02-18T13:47:44;7.37;;;0.67;;
71734;SDS011;59577;52.122;5.406;2023-02-18T13:52:48;9.93;;;1.05;;
71734;SDS011;59577;52.122;5.406;2023-02-18T13:55:22;4.32;;;1.02;;
71734;SDS011;59577;52.122;5.406;2023-02-18T13:58:11;5.57;;;0.60;;
71734;SDS011;59577;52.122;5.406;2023-02-18T14:00:50;6.40;;;0.63;;
71734;SDS011;59577;52.122;5.406;2023-02-18T14:05:59;7.13;;;0.88;;
71734;SDS011;59577;52.122;5.406;2023-02-18T14:08:35;3.10;;;0.60;;
71734;SDS011;59577;52.122;5.406;2023-02-18T14:13:49;4.30;;;0.93;;
71734;SDS011;59577;52.122;5.406;2023-02-18T14:16:20;4.32;;;0.60;;
71734;SDS011;59577;52.122;5.406;2023-02-18T14:18:59;3.15;;;0.77;;
71734;SDS011;59577;52.122;5.406;2023-02-18T14:21:42;4.05;;;0.60;;
71734;SDS011;59577;52.122;5.406;2023-02-18T14:24:10;4.93;;;0.93;;
71734;SDS011;59577;52.122;5.406;2023-02-18T14:26:44;5.47;;;0.80;;
71734;SDS011;59577;52.122;5.406;2023-02-18T14:29:16;2.33;;;0.60;;
71734;SDS011;59577;52.122;5.406;2023-02-18T14:31:49;2.42;;;0.60;;
71734;SDS011;59577;52.122;5.406;2023-02-18T14:39:51;4.07;;;0.60;;
71734;SDS011;59577;52.122;5.406;2023-02-18T14:47:49;4.60;;;0.80;;
71734;SDS011;59577;52.122;5.406;2023-02-18T14:50:24;4.82;;;0.65;;
71734;SDS011;59577;52.122;5.406;2023-02-18T14:52:55;4.70;;;0.70;;
71734;SDS011;59577;52.122;5.406;2023-02-18T14:55:32;2.72;;;0.50;;
71734;SDS011;59577;52.122;5.406;2023-02-18T14:58:04;5.20;;;0.68;;
71734;SDS011;59577;52.122;5.406;2023-02-18T15:00:33;3.28;;;0.70;;
71734;SDS011;59577;52.122;5.406;2023-02-18T15:03:14;2.38;;;0.77;;
71734;SDS011;59577;52.122;5.406;2023-02-18T15:05:42;2.73;;;0.60;;
71734;SDS011;59577;52.122;5.406;2023-02-18T15:08:14;4.82;;;0.50;;
71734;SDS011;59577;52.122;5.406;2023-02-18T15:13:27;5.38;;;0.77;;
71734;SDS011;59577;52.122;5.406;2023-02-18T15:15:57;1.80;;;0.47;;
71734;SDS011;59577;52.122;5.406;2023-02-18T15:18:36;2.63;;;0.63;;
71734;SDS011;59577;52.122;5.406;2023-02-18T15:27:14;6.65;;;0.85;;
71734;SDS011;59577;52.122;5.406;2023-02-18T15:29:50;4.47;;;0.90;;
71734;SDS011;59577;52.122;5.406;2023-02-18T15:32:23;7.63;;;1.20;;
71734;SDS011;59577;52.122;5.406;2023-02-18T15:34:53;6.60;;;0.70;;
71734;SDS011;59577;52.122;5.406;2023-02-18T15:37:22;3.97;;;0.95;;
71734;SDS011;59577;52.122;5.406;2023-02-18T15:39:49;4.72;;;1.13;;
71734;SDS011;59577;52.122;5.406;2023-02-18T15:45:03;4.73;;;0.90;;
71734;SDS011;59577;52.122;5.406;2023-02-18T15:47:41;4.60;;;2.10;;
71734;SDS011;59577;52.122;5.406;2023-02-18T15:50:15;7.63;;;1.45;;
71734;SDS011;59577;52.122;5.406;2023-02-18T15:52:47;5.80;;;1.42;;
71734;SDS011;59577;52.122;5.406;2023-02-18T15:55:26;5.85;;;0.90;;
71734;SDS011;59577;52.122;5.406;2023-02-18T15:58:02;6.77;;;1.10;;
71734;SDS011;59577;52.122;5.406;2023-02-18T16:00:32;6.03;;;1.08;;
71734;SDS011;59577;52.122;5.406;2023-02-18T16:03:03;8.32;;;1.00;;
71734;SDS011;59577;52.122;5.406;2023-02-18T16:05:38;8.20;;;1.08;;
71734;SDS011;59577;52.122;5.406;2023-02-18T16:08:14;10.10;;;1.35;;
71734;SDS011;59577;52.122;5.406;2023-02-18T16:10:44;9.03;;;1.57;;
71734;SDS011;59577;52.122;5.406;2023-02-18T16:13:15;9.38;;;1.30;;
71734;SDS011;59577;52.122;5.406;2023-02-18T16:15:44;10.98;;;2.00;;
71734;SDS011;59577;52.122;5.406;2023-02-18T16:21:05;8.32;;;1.45;;
71734;SDS011;59577;52.122;5.406;2023-02-18T16:23:59;9.70;;;1.80;;
71734;SDS011;59577;52.122;5.406;2023-02-18T16:31:52;9.32;;;1.70;;
71734;SDS011;59577;52.122;5.406;2023-02-18T16:34:19;6.00;;;1.38;;
71734;SDS011;59577;52.122;5.406;2023-02-18T16:36:45;8.87;;;2.27;;
71734;SDS011;59577;52.122;5.406;2023-02-18T16:39:32;9.38;;;1.80;;
71734;SDS011;59577;52.122;5.406;2023-02-18T16:41:59;8.27;;;1.85;;
71734;SDS011;59577;52.122;5.406;2023-02-18T16:44:26;7.85;;;2.03;;
71734;SDS011;59577;52.122;5.406;2023-02-18T16:46:53;9.65;;;2.10;;
71734;SDS011;59577;52.122;5.406;2023-02-18T16:49:19;7.40;;;2.10;;
71734;SDS011;59577;52.122;5.406;2023-02-18T16:51:46;8.18;;;2.08;;
71734;SDS011;59577;52.122;5.406;2023-02-18T16:54:14;11.65;;;2.08;;
71734;SDS011;59577;52.122;5.406;2023-02-18T16:56:41;8.35;;;1.70;;
71734;SDS011;59577;52.122;5.406;2023-02-18T16:59:08;6.80;;;1.92;;
71734;SDS011;59577;52.122;5.406;2023-02-18T17:01:38;9.33;;;1.83;;
71734;SDS011;59577;52.122;5.406;2023-02-18T17:04:10;12.70;;;2.55;;
71734;SDS011;59577;52.122;5.406;2023-02-18T17:06:39;13.75;;;5.60;;
71734;SDS011;59577;52.122;5.406;2023-02-18T17:09:19;8.18;;;3.10;;
71734;SDS011;59577;52.122;5.406;2023-02-18T17:11:50;8.20;;;2.92;;
71734;SDS011;59577;52.122;5.406;2023-02-18T17:14:20;10.13;;;2.93;;
71734;SDS011;59577;52.122;5.406;2023-02-18T17:16:48;8.25;;;2.50;;
71734;SDS011;59577;52.122;5.406;2023-02-18T17:19:17;11.13;;;2.50;;
71734;SDS011;59577;52.122;5.406;2023-02-18T17:21:44;9.20;;;2.35;;
71734;SDS011;59577;52.122;5.406;2023-02-18T17:24:14;13.23;;;2.90;;
71734;SDS011;59577;52.122;5.406;2023-02-18T17:26:42;8.10;;;1.80;;
71734;SDS011;59577;52.122;5.406;2023-02-18T17:29:09;5.43;;;1.50;;